createdAt,value
2018-03-28T00:00:30.521Z,18.57
2018-03-28T00:02:57.689Z,19.37
2018-03-28T00:05:25.108Z,25.50
2018-03-28T00:07:52.322Z,25.80
2018-03-28T00:10:19.734Z,24.10
2018-03-28T00:12:47.177Z,27.67
2018-03-28T00:15:14.685Z,27.50
2018-03-28T00:17:41.965Z,20.93
2018-03-28T00:20:09.180Z,21.57
2018-03-28T00:22:36.393Z,24.23
2018-03-28T00:25:03.554Z,22.77
2018-03-28T00:27:31.600Z,24.87
2018-03-28T00:29:59.140Z,21.00
2018-03-28T00:32:26.374Z,20.80
2018-03-28T00:34:54.246Z,20.30
2018-03-28T00:37:24.785Z,20.73
2018-03-28T00:39:52.090Z,22.80
2018-03-28T00:42:19.142Z,21.23
2018-03-28T00:44:46.250Z,17.53
2018-03-28T00:47:13.582Z,20.83
2018-03-28T00:49:40.642Z,22.23
2018-03-28T00:52:07.723Z,21.80
2018-03-28T00:57:23.406Z,23.50
2018-03-28T00:59:50.599Z,20.50
2018-03-28T01:02:17.748Z,21.53
2018-03-28T01:04:45.017Z,18.57
2018-03-28T01:07:12.098Z,22.17
2018-03-28T01:09:39.325Z,22.40
2018-03-28T01:12:06.538Z,38.20
2018-03-28T01:14:33.841Z,32.63
2018-03-28T01:17:05.045Z,26.33
2018-03-28T01:19:32.270Z,22.87
2018-03-28T01:21:59.448Z,23.77
2018-03-28T01:24:26.610Z,32.07
2018-03-28T01:26:56.990Z,62.03
2018-03-28T01:29:24.218Z,27.67
2018-03-28T01:31:51.437Z,22.87
2018-03-28T01:34:18.737Z,21.20
2018-03-28T01:36:48.902Z,23.07
2018-03-28T01:39:16.854Z,23.70
2018-03-28T01:41:44.161Z,28.50
2018-03-28T01:44:11.386Z,27.50
2018-03-28T01:46:39.620Z,28.17
2018-03-28T01:49:06.795Z,38.27
2018-03-28T01:51:34.029Z,40.20
2018-03-28T01:54:01.261Z,39.10
2018-03-28T01:56:29.634Z,26.60
2018-03-28T01:58:56.817Z,26.33
2018-03-28T02:01:24.096Z,27.53
2018-03-28T02:03:51.328Z,28.97
2018-03-28T02:06:19.700Z,27.03
2018-03-28T02:08:47.689Z,35.57
2018-03-28T02:11:14.999Z,27.53
2018-03-28T02:13:42.276Z,25.87
2018-03-28T02:16:09.713Z,25.07
2018-03-28T02:18:36.893Z,31.87
2018-03-28T02:21:04.060Z,28.00
2018-03-28T02:23:31.283Z,28.67
2018-03-28T02:26:02.159Z,26.60
2018-03-28T02:28:29.462Z,26.73
2018-03-28T02:30:56.650Z,24.77
2018-03-28T02:33:23.766Z,23.40
2018-03-28T02:35:51.996Z,24.60
2018-03-28T02:38:19.231Z,24.63
2018-03-28T02:40:46.469Z,22.73
2018-03-28T02:43:13.610Z,24.10
2018-03-28T02:45:47.134Z,26.77
2018-03-28T02:48:14.255Z,22.87
2018-03-28T02:50:41.437Z,24.23
2018-03-28T02:53:08.736Z,23.67
2018-03-28T02:55:35.948Z,23.83
2018-03-28T02:58:03.238Z,24.40
2018-03-28T03:00:30.556Z,24.60
2018-03-28T03:02:57.826Z,26.77
2018-03-28T03:05:26.022Z,24.70
2018-03-28T03:07:53.301Z,24.10
2018-03-28T03:10:20.575Z,22.93
2018-03-28T03:12:47.842Z,23.70
2018-03-28T03:15:18.124Z,24.23
2018-03-28T03:17:45.378Z,24.63
2018-03-28T03:20:12.674Z,23.47
2018-03-28T03:26:13.578Z,24.77
2018-03-28T03:28:40.716Z,20.97
2018-03-28T03:31:07.957Z,23.03
2018-03-28T03:33:35.447Z,26.30
2018-03-28T03:36:03.550Z,24.90
2018-03-28T03:38:30.785Z,25.43
2018-03-28T03:40:58.082Z,27.90
2018-03-28T03:43:25.378Z,29.63
2018-03-28T03:45:56.821Z,21.17
2018-03-28T03:48:24.058Z,38.60
2018-03-28T03:50:51.368Z,33.90
2018-03-28T03:53:18.469Z,22.77
2018-03-28T03:55:46.698Z,25.40
2018-03-28T03:58:13.886Z,28.67
2018-03-28T04:00:41.002Z,29.90
2018-03-28T04:03:09.058Z,24.30
2018-03-28T04:05:36.226Z,29.17
2018-03-28T04:08:03.361Z,27.47
2018-03-28T04:10:30.594Z,27.67
2018-03-28T04:12:57.790Z,22.97
2018-03-28T04:15:28.808Z,25.90
2018-03-28T04:17:56.069Z,24.37
2018-03-28T04:20:24.015Z,26.20
2018-03-28T04:22:51.693Z,24.27
2018-03-28T04:25:19.247Z,26.37
2018-03-28T04:27:47.231Z,28.00
2018-03-28T04:30:14.578Z,32.40
2018-03-28T04:32:42.360Z,33.13
2018-03-28T04:35:15.449Z,36.93
2018-03-28T04:37:42.498Z,42.97
2018-03-28T04:40:09.814Z,36.93
2018-03-28T04:42:36.988Z,38.77
2018-03-28T04:45:07.182Z,38.20
2018-03-28T04:47:34.394Z,29.13
2018-03-28T04:50:01.654Z,32.33
2018-03-28T04:52:43.659Z,35.53
2018-03-28T04:55:10.948Z,30.37
2018-03-28T04:57:38.049Z,36.20
2018-03-28T05:00:05.077Z,24.57
2018-03-28T05:02:32.270Z,22.77
2018-03-28T05:05:02.825Z,25.37
2018-03-28T05:07:30.878Z,28.03
2018-03-28T05:09:58.066Z,32.13
2018-03-28T05:12:25.259Z,26.67
2018-03-28T05:14:55.623Z,29.33
2018-03-28T05:17:22.842Z,25.67
2018-03-28T05:19:50.050Z,22.87
2018-03-28T05:22:17.045Z,42.27
2018-03-28T05:24:45.390Z,35.53
2018-03-28T05:27:12.625Z,28.80
2018-03-28T05:29:39.758Z,30.50
2018-03-28T05:32:06.984Z,35.57
2018-03-28T05:34:34.602Z,34.50
2018-03-28T05:37:01.894Z,35.20
2018-03-28T05:39:28.951Z,42.50
2018-03-28T05:41:56.031Z,44.70
2018-03-28T05:44:23.344Z,39.50
2018-03-28T05:46:50.842Z,45.87
2018-03-28T05:49:18.278Z,42.60
2018-03-28T05:51:45.496Z,44.93
2018-03-28T05:54:12.820Z,39.53
2018-03-28T05:56:43.943Z,34.57
2018-03-28T05:59:11.204Z,38.97
2018-03-28T06:01:38.466Z,36.23
2018-03-28T06:04:06.614Z,45.93
2018-03-28T06:06:35.214Z,33.47
2018-03-28T06:09:02.273Z,29.53
2018-03-28T06:11:29.584Z,26.30
2018-03-28T06:13:56.957Z,26.90
2018-03-28T06:16:24.313Z,27.43
2018-03-28T06:18:51.496Z,26.03
2018-03-28T06:21:18.908Z,28.57
2018-03-28T06:23:45.930Z,25.43
2018-03-28T06:26:13.347Z,33.40
2018-03-28T06:28:40.625Z,33.13
2018-03-28T06:31:07.966Z,41.27
2018-03-28T06:33:35.210Z,40.13
2018-03-28T06:36:03.585Z,41.27
2018-03-28T06:38:30.877Z,48.00
2018-03-28T06:40:58.042Z,53.10
2018-03-28T06:43:25.347Z,52.83
2018-03-28T06:45:52.670Z,45.10
2018-03-28T06:48:19.934Z,46.60
2018-03-28T06:50:47.371Z,46.90
2018-03-28T06:53:14.500Z,45.77
2018-03-28T06:55:42.833Z,50.37
2018-03-28T06:58:10.561Z,47.33
2018-03-28T07:00:37.781Z,43.27
2018-03-28T07:03:05.110Z,40.83
2018-03-28T07:05:32.889Z,41.50
2018-03-28T07:08:00.102Z,47.73
2018-03-28T07:10:27.376Z,47.07
2018-03-28T07:12:54.669Z,46.63
2018-03-28T07:15:22.990Z,55.00
2018-03-28T07:17:50.322Z,46.10
2018-03-28T07:20:17.396Z,47.03
2018-03-28T07:22:44.659Z,45.63
2018-03-28T07:25:15.738Z,43.93
2018-03-28T07:27:42.975Z,63.63
2018-03-28T07:30:10.013Z,51.77
2018-03-28T07:32:37.265Z,53.50
2018-03-28T07:35:05.438Z,49.70
2018-03-28T07:37:33.365Z,44.43
2018-03-28T07:40:00.431Z,49.90
2018-03-28T07:45:19.874Z,57.33
2018-03-28T07:47:47.089Z,49.20
2018-03-28T07:50:14.426Z,45.30
2018-03-28T07:52:41.590Z,52.20
2018-03-28T07:55:09.168Z,53.33
2018-03-28T07:57:36.879Z,56.57
2018-03-28T08:00:04.054Z,59.60
2018-03-28T08:02:31.400Z,47.10
2018-03-28T08:05:01.950Z,125.67
2018-03-28T08:07:29.240Z,65.90
2018-03-28T08:09:56.633Z,67.40
2018-03-28T08:12:24.582Z,48.67
2018-03-28T08:14:55.168Z,46.27
2018-03-28T08:17:22.406Z,46.67
2018-03-28T08:19:49.553Z,53.83
2018-03-28T08:22:16.745Z,56.33
2018-03-28T08:24:45.086Z,49.20
2018-03-28T08:27:12.206Z,60.37
2018-03-28T08:29:39.470Z,53.20
2018-03-28T08:32:07.449Z,55.83
2018-03-28T08:34:34.661Z,53.43
2018-03-28T08:37:01.957Z,47.97
2018-03-28T08:39:29.210Z,42.43
2018-03-28T08:41:56.689Z,42.43
2018-03-28T08:44:28.571Z,50.60
2018-03-28T08:46:55.909Z,52.53
2018-03-28T08:49:23.241Z,56.90
2018-03-28T08:51:50.420Z,45.60
2018-03-28T08:54:18.974Z,41.50
2018-03-28T08:56:46.173Z,43.90
2018-03-28T08:59:13.414Z,45.07
2018-03-28T09:01:40.684Z,39.90
2018-03-28T09:04:11.923Z,40.37
2018-03-28T09:06:39.237Z,40.57
2018-03-28T09:09:07.328Z,43.13
2018-03-28T09:11:34.659Z,61.60
2018-03-28T09:14:05.421Z,38.00
2018-03-28T09:16:32.677Z,32.70
2018-03-28T09:19:00.031Z,34.00
2018-03-28T09:21:27.162Z,42.53
2018-03-28T09:24:04.124Z,44.50
2018-03-28T09:26:31.457Z,38.03
2018-03-28T09:28:58.613Z,35.17
2018-03-28T09:31:25.761Z,34.90
2018-03-28T09:33:57.878Z,34.07
2018-03-28T09:36:25.227Z,32.87
2018-03-28T09:38:52.501Z,32.23
2018-03-28T09:41:19.857Z,36.23
2018-03-28T09:43:46.994Z,40.17
2018-03-28T09:46:14.283Z,44.00
2018-03-28T09:48:41.599Z,68.83
2018-03-28T09:51:09.631Z,68.77
2018-03-28T09:53:37.316Z,61.63
2018-03-28T09:56:07.702Z,50.47
2018-03-28T09:58:34.835Z,49.97
2018-03-28T10:01:08.071Z,41.00
2018-03-28T10:03:41.186Z,44.33
2018-03-28T10:06:08.360Z,40.37
2018-03-28T10:08:35.473Z,43.43
2018-03-28T10:11:02.641Z,46.13
2018-03-28T10:13:29.772Z,52.73
2018-03-28T10:15:57.957Z,48.03
2018-03-28T10:18:25.221Z,43.23
2018-03-28T10:20:52.466Z,30.17
2018-03-28T10:23:19.619Z,35.57
2018-03-28T10:25:50.462Z,36.90
2018-03-28T10:28:17.873Z,41.27
2018-03-28T10:30:45.102Z,47.67
2018-03-28T10:33:12.448Z,54.23
2018-03-28T10:35:40.812Z,51.13
2018-03-28T10:38:08.101Z,60.07
2018-03-28T10:40:35.410Z,59.60
2018-03-28T10:43:02.638Z,59.23
2018-03-28T10:45:30.327Z,63.10
2018-03-28T10:47:58.250Z,53.77
2018-03-28T10:50:25.480Z,50.93
2018-03-28T10:52:52.853Z,40.77
2018-03-28T10:55:20.926Z,33.73
2018-03-28T10:57:48.086Z,40.13
2018-03-28T11:00:15.278Z,44.80
2018-03-28T11:02:43.175Z,44.30
2018-03-28T11:05:14.378Z,38.83
2018-03-28T11:07:41.566Z,44.53
2018-03-28T11:10:08.820Z,40.73
2018-03-28T11:12:36.130Z,41.77
2018-03-28T11:15:04.413Z,44.37
2018-03-28T11:17:31.570Z,43.93
2018-03-28T11:19:58.874Z,42.17
2018-03-28T11:22:26.081Z,27.73
2018-03-28T11:25:00.149Z,27.07
2018-03-28T11:27:27.298Z,22.40
2018-03-28T11:29:54.494Z,20.63
2018-03-28T11:32:21.687Z,25.33
2018-03-28T11:34:52.580Z,22.10
2018-03-28T11:37:20.443Z,25.13
2018-03-28T11:39:47.619Z,27.40
2018-03-28T11:42:15.212Z,31.57
2018-03-28T11:44:42.654Z,38.20
2018-03-28T11:47:10.549Z,33.50
2018-03-28T11:49:37.791Z,33.87
2018-03-28T11:52:04.909Z,36.43
2018-03-28T11:54:35.464Z,36.27
2018-03-28T11:57:02.587Z,37.83
2018-03-28T11:59:29.874Z,32.97
2018-03-28T12:01:57.117Z,32.70
2018-03-28T12:04:30.250Z,34.17
2018-03-28T12:06:57.444Z,35.27
2018-03-28T12:09:24.983Z,34.70
2018-03-28T12:11:52.059Z,35.77
2018-03-28T12:14:19.459Z,32.93
2018-03-28T12:16:46.677Z,33.03
2018-03-28T12:19:13.961Z,37.13
2018-03-28T12:21:41.089Z,35.53
2018-03-28T12:24:08.389Z,35.83
2018-03-28T12:26:35.672Z,33.73
2018-03-28T12:29:03.041Z,34.87
2018-03-28T12:31:30.293Z,35.27
2018-03-28T12:34:01.153Z,35.03
2018-03-28T12:36:28.289Z,35.57
2018-03-28T12:38:56.147Z,37.80
2018-03-28T12:41:23.217Z,41.07
2018-03-28T12:43:55.973Z,36.80
2018-03-28T12:46:24.069Z,37.77
2018-03-28T12:48:51.228Z,34.63
2018-03-28T12:51:18.524Z,40.30
2018-03-28T12:53:45.628Z,35.87
2018-03-28T12:56:12.778Z,33.67
2018-03-28T12:58:39.853Z,35.37
2018-03-28T13:01:07.182Z,33.90
2018-03-28T13:03:35.620Z,35.50
2018-03-28T13:06:02.805Z,36.27
2018-03-28T13:08:29.773Z,41.60
2018-03-28T13:10:57.685Z,42.73
2018-03-28T13:13:29.052Z,41.63
2018-03-28T13:15:56.389Z,38.30
2018-03-28T13:18:23.626Z,34.20
2018-03-28T13:20:50.929Z,39.90
2018-03-28T13:23:18.142Z,39.17
2018-03-28T13:25:45.269Z,36.97
2018-03-28T13:28:12.521Z,44.47
2018-03-28T13:30:40.533Z,33.97
2018-03-28T13:33:07.734Z,35.50
2018-03-28T13:35:34.927Z,38.90
2018-03-28T13:38:02.070Z,39.63
2018-03-28T13:40:29.353Z,38.67
2018-03-28T13:42:56.759Z,40.00
2018-03-28T13:45:25.284Z,39.57
2018-03-28T13:47:52.626Z,42.57
2018-03-28T13:50:19.904Z,38.83
2018-03-28T13:52:47.168Z,58.33
2018-03-28T13:55:18.265Z,50.13
2018-03-28T13:57:45.446Z,56.90
2018-03-28T14:00:13.361Z,55.97
2018-03-28T14:02:40.504Z,54.77
2018-03-28T14:05:12.058Z,58.23
2018-03-28T14:07:39.421Z,52.37
2018-03-28T14:10:06.718Z,54.63
2018-03-28T14:12:33.982Z,54.40
2018-03-28T14:15:01.332Z,61.93
2018-03-28T14:17:29.019Z,57.93
2018-03-28T14:19:56.275Z,57.53
2018-03-28T14:22:23.495Z,56.93
2018-03-28T14:24:51.906Z,52.87
2018-03-28T14:27:19.134Z,53.67
2018-03-28T14:29:46.420Z,55.37
2018-03-28T14:32:13.789Z,57.40
2018-03-28T14:34:44.155Z,57.93
2018-03-28T14:37:11.259Z,54.17
2018-03-28T14:39:38.637Z,56.07
2018-03-28T14:42:05.874Z,62.77
2018-03-28T14:44:36.491Z,59.80
2018-03-28T14:47:04.257Z,52.93
2018-03-28T14:49:31.868Z,59.00
2018-03-28T14:51:59.125Z,54.67
2018-03-28T14:54:32.662Z,60.17
2018-03-28T14:56:59.953Z,60.03
2018-03-28T14:59:27.952Z,58.43
2018-03-28T15:01:55.192Z,51.63
2018-03-28T15:04:28.885Z,54.43
2018-03-28T15:06:56.049Z,61.53
2018-03-28T15:09:23.368Z,59.53
2018-03-28T15:11:51.062Z,63.20
2018-03-28T15:14:21.936Z,68.10
2018-03-28T15:16:49.251Z,55.67
2018-03-28T15:19:16.542Z,60.30
2018-03-28T15:21:43.851Z,55.57
2018-03-28T15:24:14.979Z,64.73
2018-03-28T15:26:42.102Z,106.97
2018-03-28T15:29:09.417Z,62.80
2018-03-28T15:31:36.658Z,74.23
2018-03-28T15:34:04.990Z,64.83
2018-03-28T15:36:32.317Z,70.00
2018-03-28T15:38:59.495Z,59.37
2018-03-28T15:41:27.761Z,61.07
2018-03-28T15:43:56.985Z,56.67
2018-03-28T15:46:24.311Z,66.67
2018-03-28T15:48:51.523Z,62.70
2018-03-28T15:51:18.668Z,60.70
2018-03-28T15:53:56.730Z,66.07
2018-03-28T15:56:23.852Z,61.87
2018-03-28T15:58:51.789Z,57.67
2018-03-28T16:01:19.094Z,59.07
2018-03-28T16:03:48.194Z,66.57
2018-03-28T16:06:15.608Z,62.17
2018-03-28T16:08:43.036Z,64.07
2018-03-28T16:11:10.447Z,79.47
2018-03-28T16:13:40.899Z,63.23
2018-03-28T16:16:08.480Z,65.40
2018-03-28T16:18:35.762Z,62.57
2018-03-28T16:21:02.969Z,64.47
2018-03-28T16:23:35.975Z,53.97
2018-03-28T16:26:03.154Z,66.43
2018-03-28T16:28:30.658Z,60.80
2018-03-28T16:30:58.725Z,61.03
2018-03-28T16:33:26.985Z,73.53
2018-03-28T16:35:54.970Z,70.57
2018-03-28T16:38:22.303Z,76.13
2018-03-28T16:40:49.645Z,76.63
2018-03-28T16:43:17.937Z,81.93
2018-03-28T16:45:45.425Z,93.83
2018-03-28T16:48:13.465Z,112.00
2018-03-28T16:50:40.517Z,76.03
2018-03-28T16:53:12.657Z,74.83
2018-03-28T16:55:40.336Z,78.60
2018-03-28T16:58:07.620Z,84.20
2018-03-28T17:00:35.057Z,75.03
2018-03-28T17:03:06.209Z,71.70
2018-03-28T17:05:34.582Z,70.47
2018-03-28T17:08:02.318Z,66.03
2018-03-28T17:10:30.185Z,71.40
2018-03-28T17:12:58.436Z,72.90
2018-03-28T17:15:25.762Z,68.17
2018-03-28T17:17:53.480Z,66.57
2018-03-28T17:20:20.675Z,67.23
2018-03-28T17:22:53.174Z,69.17
2018-03-28T17:25:20.446Z,65.40
2018-03-28T17:27:47.682Z,65.77
2018-03-28T17:30:14.877Z,73.83
2018-03-28T17:32:42.457Z,73.23
2018-03-28T17:35:09.865Z,71.53
2018-03-28T17:37:38.846Z,75.40
2018-03-28T17:40:06.056Z,73.97
2018-03-28T17:42:33.347Z,74.43
2018-03-28T17:45:00.607Z,73.73
2018-03-28T17:47:27.838Z,82.90
2018-03-28T17:49:56.179Z,78.30
2018-03-28T17:52:23.374Z,77.50
2018-03-28T17:54:51.671Z,79.37
2018-03-28T17:57:20.258Z,84.73
2018-03-28T17:59:47.403Z,81.70
2018-03-28T18:02:16.283Z,74.53
2018-03-28T18:04:44.543Z,69.27
2018-03-28T18:07:11.880Z,82.93
2018-03-28T18:09:39.067Z,86.57
2018-03-28T18:12:06.362Z,66.97
2018-03-28T18:14:34.698Z,76.53
2018-03-28T18:17:02.046Z,73.50
2018-03-28T18:19:29.330Z,71.87
2018-03-28T18:21:56.630Z,76.30
2018-03-28T18:24:30.522Z,76.67
2018-03-28T18:26:57.692Z,74.50
2018-03-28T18:29:24.862Z,73.53
2018-03-28T18:31:52.673Z,81.40
2018-03-28T18:34:20.814Z,97.00
2018-03-28T18:36:48.037Z,89.67
2018-03-28T18:39:16.081Z,91.17
2018-03-28T18:41:43.538Z,98.07
2018-03-28T18:44:12.074Z,96.77
2018-03-28T18:46:39.291Z,86.10
2018-03-28T18:49:06.598Z,86.73
2018-03-28T18:51:33.923Z,89.20
2018-03-28T18:54:04.683Z,92.47
2018-03-28T18:56:32.727Z,107.13
2018-03-28T18:59:00.602Z,97.63
2018-03-28T19:01:28.321Z,87.60
2018-03-28T19:03:55.792Z,91.83
2018-03-28T19:06:23.122Z,85.67
2018-03-28T19:08:50.982Z,84.57
2018-03-28T19:11:18.862Z,77.23
2018-03-28T19:13:46.346Z,80.93
2018-03-28T19:16:13.578Z,84.93
2018-03-28T19:18:41.750Z,107.43
2018-03-28T19:21:09.131Z,88.37
2018-03-28T19:23:36.509Z,73.30
2018-03-28T19:26:03.923Z,78.53
2018-03-28T19:28:31.141Z,78.33
2018-03-28T19:30:58.467Z,78.77
2018-03-28T19:33:27.435Z,82.03
2018-03-28T19:35:54.675Z,83.47
2018-03-28T19:38:22.032Z,85.93
2018-03-28T19:40:49.290Z,144.43
2018-03-28T19:43:19.859Z,70.40
2018-03-28T19:45:46.957Z,68.07
2018-03-28T19:48:14.274Z,69.87
2018-03-28T19:50:41.543Z,89.80
2018-03-28T19:53:08.758Z,130.27
2018-03-28T19:55:36.594Z,84.37
2018-03-28T19:58:03.830Z,68.87
2018-03-28T20:00:30.920Z,58.30
2018-03-28T20:02:58.390Z,63.53
2018-03-28T20:05:25.680Z,62.03
2018-03-28T20:07:53.927Z,64.50
2018-03-28T20:10:21.172Z,61.00
2018-03-28T20:12:49.358Z,58.97
2018-03-28T20:15:16.578Z,66.37
2018-03-28T20:17:43.765Z,69.37
2018-03-28T20:20:10.970Z,71.33
2018-03-28T20:22:38.313Z,77.00
2018-03-28T20:25:05.642Z,80.87
2018-03-28T20:27:32.762Z,81.73
2018-03-28T20:30:00.132Z,88.37
2018-03-28T20:32:27.354Z,97.77
2018-03-28T20:34:54.573Z,91.83
2018-03-28T20:37:21.857Z,95.07
2018-03-28T20:39:49.674Z,86.27
2018-03-28T20:42:20.957Z,111.00
2018-03-28T20:44:48.203Z,100.83
2018-03-28T20:47:15.561Z,105.47
2018-03-28T20:49:42.718Z,108.23
2018-03-28T20:52:17.259Z,111.07
2018-03-28T20:54:44.549Z,108.30
2018-03-28T20:57:12.081Z,103.03
2018-03-28T20:59:39.585Z,98.10
2018-03-28T21:02:06.777Z,99.53
2018-03-28T21:04:34.590Z,100.83
2018-03-28T21:07:01.800Z,94.33
2018-03-28T21:09:29.122Z,106.50
2018-03-28T21:11:56.374Z,95.67
2018-03-28T21:14:29.759Z,101.37
2018-03-28T21:16:56.986Z,99.77
2018-03-28T21:19:24.334Z,101.70
2018-03-28T21:21:51.548Z,97.07
2018-03-28T21:24:22.675Z,93.57
2018-03-28T21:26:49.882Z,103.80
2018-03-28T21:29:17.446Z,115.17
2018-03-28T21:31:44.628Z,122.30
2018-03-28T21:34:14.953Z,119.90
2018-03-28T21:36:42.255Z,142.23
2018-03-28T21:39:09.550Z,148.47
2018-03-28T21:41:36.733Z,132.80
2018-03-28T21:44:04.858Z,129.60
2018-03-28T21:46:32.189Z,113.43
2018-03-28T21:48:59.386Z,108.17
2018-03-28T21:51:26.580Z,120.83
2018-03-28T21:53:57.246Z,108.70
2018-03-28T21:56:24.433Z,121.13
2018-03-28T21:58:51.646Z,129.57
2018-03-28T22:01:18.865Z,124.50
2018-03-28T22:03:47.269Z,123.07
2018-03-28T22:06:14.469Z,100.80
2018-03-28T22:08:41.609Z,84.37
2018-03-28T22:11:08.693Z,83.73
2018-03-28T22:13:39.974Z,78.67
2018-03-28T22:16:07.092Z,67.23
2018-03-28T22:18:35.361Z,64.87
2018-03-28T22:21:02.414Z,65.70
2018-03-28T22:23:31.096Z,62.20
2018-03-28T22:25:58.330Z,56.07
2018-03-28T22:28:25.617Z,45.17
2018-03-28T22:30:52.642Z,44.07
2018-03-28T22:33:26.244Z,44.93
2018-03-28T22:35:53.409Z,46.10
2018-03-28T22:38:20.540Z,43.97
2018-03-28T22:40:47.575Z,43.40
2018-03-28T22:43:25.963Z,42.03
2018-03-28T22:45:53.287Z,44.93
2018-03-28T22:48:20.390Z,44.47
2018-03-28T22:50:47.621Z,45.13
2018-03-28T22:53:18.165Z,46.90
2018-03-28T22:55:45.345Z,43.17
2018-03-28T22:58:12.623Z,46.27
2018-03-28T23:00:39.925Z,44.83
2018-03-28T23:03:07.315Z,42.10
2018-03-28T23:05:34.456Z,43.87
2018-03-28T23:08:02.709Z,44.23
2018-03-28T23:10:29.830Z,45.40
2018-03-28T23:13:00.643Z,47.97
2018-03-28T23:15:27.838Z,46.33
2018-03-28T23:17:55.397Z,45.47
2018-03-28T23:20:22.521Z,46.87
2018-03-28T23:22:53.153Z,49.20
2018-03-28T23:25:20.221Z,50.60
2018-03-28T23:27:47.349Z,51.27
2018-03-28T23:30:14.496Z,51.23
2018-03-28T23:32:42.694Z,49.70
2018-03-28T23:35:09.994Z,45.50
2018-03-28T23:37:37.280Z,47.60
2018-03-28T23:40:04.385Z,48.67
2018-03-28T23:42:37.674Z,59.47
2018-03-28T23:45:04.732Z,65.43
2018-03-28T23:47:31.866Z,58.77
2018-03-28T23:49:59.076Z,48.80
2018-03-28T23:52:27.460Z,54.67
2018-03-28T23:54:55.498Z,49.07
2018-03-28T23:57:22.813Z,49.43
2018-03-28T23:59:50.064Z,48.97
